Time;durP1;ratioP1;P1;durP2;ratioP2;P2;SDS_P1;SDS_P2;PMS_P1;PMS_P2;Temp;Humidity;BMP_temperature;BMP_pressure;BME280_temperature;BME280_humidity;BME280_pressure;Samples;Min_cycle;Max_cycle;Signal;HPM_P1;HPM_P2
2022/07/02 00:02:00;;;;;;;6.47;1.25;;;12.90;99.90;;;;;;4994027;28;20395;-59
2022/07/02 00:04:31;;;;;;;3.80;1.60;;;12.90;99.90;;;;;;4993573;28;20118;-61
2022/07/02 00:06:56;;;;;;;7.00;1.45;;;12.90;99.90;;;;;;4994154;28;20025;-59
2022/07/02 00:09:23;;;;;;;4.85;1.70;;;12.80;99.90;;;;;;4994023;28;20026;-58
2022/07/02 00:11:49;;;;;;;2.95;1.70;;;12.80;99.90;;;;;;4993639;28;20230;-59
2022/07/02 00:14:16;;;;;;;5.40;1.52;;;12.70;99.90;;;;;;4992611;28;20037;-59
2022/07/02 00:16:45;;;;;;;5.32;1.55;;;12.70;99.90;;;;;;4993728;28;20480;-58
2022/07/02 00:19:13;;;;;;;5.70;1.63;;;12.70;99.90;;;;;;4993939;28;20034;-58
2022/07/02 00:21:39;;;;;;;6.00;1.33;;;12.70;99.90;;;;;;4993926;28;20500;-57
2022/07/02 00:24:07;;;;;;;4.68;1.33;;;12.70;99.90;;;;;;4993692;28;20448;-59
2022/07/02 00:26:38;;;;;;;3.78;1.52;;;12.70;99.90;;;;;;4992364;28;20058;-57
2022/07/02 00:29:28;;;;;;;3.13;1.60;;;12.70;99.90;;;;;;4994160;28;20030;-59
2022/07/02 00:31:55;;;;;;;3.20;1.40;;;12.70;99.90;;;;;;4978249;28;20508;-60
2022/07/02 00:34:24;;;;;;;2.45;1.50;;;12.60;99.90;;;;;;4993041;28;20049;-58
2022/07/02 00:36:50;;;;;;;6.13;1.70;;;12.60;99.90;;;;;;4993484;28;20106;-57
2022/07/02 00:39:16;;;;;;;4.45;1.58;;;12.50;99.90;;;;;;4993318;28;20105;-60
2022/07/02 00:41:43;;;;;;;7.72;1.50;;;12.50;99.90;;;;;;4992454;28;20456;-59
2022/07/02 00:44:09;;;;;;;8.73;1.85;;;12.50;99.90;;;;;;4993430;28;20052;-58
2022/07/02 00:46:36;;;;;;;4.68;1.85;;;12.50;99.90;;;;;;4993034;28;20022;-55
2022/07/02 00:49:02;;;;;;;2.20;1.45;;;12.40;99.90;;;;;;4993387;28;20045;-58
2022/07/02 00:51:28;;;;;;;3.20;1.77;;;12.40;99.90;;;;;;4991808;28;20105;-59
2022/07/02 00:53:54;;;;;;;4.28;1.52;;;12.40;99.90;;;;;;4990496;28;20037;-57
2022/07/02 00:56:20;;;;;;;3.03;2.00;;;12.40;99.90;;;;;;4992257;28;20518;-57
2022/07/02 00:58:46;;;;;;;5.88;1.95;;;12.40;99.90;;;;;;4993019;28;20022;-58
2022/07/02 01:01:12;;;;;;;4.00;1.88;;;12.30;99.90;;;;;;4993113;28;20027;-59
2022/07/02 01:03:38;;;;;;;5.03;1.95;;;12.30;99.90;;;;;;4993343;28;20030;-58
2022/07/02 01:06:04;;;;;;;2.80;1.52;;;12.30;99.90;;;;;;4991395;28;20120;-58
2022/07/02 01:11:18;;;;;;;6.78;1.70;;;12.30;99.90;;;;;;4992527;28;20069;-58
2022/07/02 01:13:45;;;;;;;2.97;1.90;;;12.30;99.90;;;;;;4992893;28;20504;-56
2022/07/02 01:16:10;;;;;;;5.15;1.90;;;12.20;99.90;;;;;;4992413;28;20030;-58
2022/07/02 01:18:37;;;;;;;3.35;1.75;;;12.20;99.90;;;;;;4992850;28;20029;-57
2022/07/02 01:21:03;;;;;;;5.55;2.05;;;12.20;99.90;;;;;;4990126;28;20535;-58
2022/07/02 01:23:29;;;;;;;3.65;1.83;;;12.10;99.90;;;;;;4991634;28;20046;-58
2022/07/02 01:25:54;;;;;;;7.28;2.15;;;12.10;99.90;;;;;;4992209;28;20023;-57
2022/07/02 01:28:21;;;;;;;6.32;2.10;;;12.10;99.90;;;;;;4991652;28;20026;-57
2022/07/02 01:30:47;;;;;;;7.28;1.88;;;12.00;99.90;;;;;;4992270;28;20117;-58
2022/07/02 01:33:13;;;;;;;3.55;1.70;;;12.00;99.90;;;;;;4992749;28;20101;-56
2022/07/02 01:35:38;;;;;;;4.30;2.00;;;12.00;99.90;;;;;;4990193;28;20471;-60
2022/07/02 01:38:04;;;;;;;8.40;2.28;;;12.00;99.90;;;;;;4992756;28;20026;-57
2022/07/02 01:40:30;;;;;;;5.70;2.10;;;11.90;99.90;;;;;;4992365;28;20022;-58
2022/07/02 01:42:55;;;;;;;2.25;1.42;;;11.90;99.90;;;;;;4991686;28;20026;-60
2022/07/02 01:45:21;;;;;;;4.53;1.80;;;11.90;99.90;;;;;;4991290;28;20418;-59
2022/07/02 01:47:47;;;;;;;4.63;2.10;;;11.80;99.90;;;;;;4992137;28;20027;-58
2022/07/02 01:50:12;;;;;;;8.32;1.73;;;11.80;99.90;;;;;;4992516;28;20029;-58
2022/07/02 01:52:38;;;;;;;3.92;1.77;;;11.70;99.90;;;;;;4992385;28;20036;-59
2022/07/02 01:55:05;;;;;;;5.50;2.13;;;11.70;99.90;;;;;;4991973;28;20050;-60
2022/07/02 01:57:35;;;;;;;5.25;2.20;;;11.60;99.90;;;;;;4988447;28;20105;-57
2022/07/02 02:00:11;;;;;;;3.55;1.90;;;11.60;99.90;;;;;;4991169;28;20030;-59
2022/07/02 02:02:37;;;;;;;5.68;2.08;;;11.60;99.90;;;;;;4988218;28;20419;-57
2022/07/02 02:05:02;;;;;;;3.65;1.50;;;11.60;99.90;;;;;;4992044;28;20033;-57
2022/07/02 02:07:29;;;;;;;4.60;2.13;;;11.60;99.90;;;;;;4992108;28;20026;-58
2022/07/02 02:09:54;;;;;;;5.47;2.13;;;11.50;99.90;;;;;;4992525;28;20114;-59
2022/07/02 02:12:21;;;;;;;7.50;2.25;;;11.50;99.90;;;;;;4991107;28;20109;-58
2022/07/02 02:14:46;;;;;;;4.43;1.73;;;11.50;99.90;;;;;;4991662;28;21811;-60
2022/07/02 02:17:12;;;;;;;5.05;2.08;;;11.40;99.90;;;;;;4992267;28;20106;-58
2022/07/02 02:19:38;;;;;;;3.28;2.03;;;11.40;99.90;;;;;;4992296;28;20028;-59
2022/07/02 02:22:04;;;;;;;3.85;1.73;;;11.40;99.90;;;;;;4992157;28;20100;-60
2022/07/02 02:24:29;;;;;;;2.85;1.95;;;11.40;99.90;;;;;;4990886;28;20038;-60
2022/07/02 02:26:55;;;;;;;8.63;2.20;;;11.40;99.90;;;;;;4991549;28;20054;-59
2022/07/02 02:29:21;;;;;;;4.30;1.88;;;11.40;99.90;;;;;;4991872;28;20026;-57
2022/07/02 02:31:47;;;;;;;3.97;1.95;;;11.30;99.90;;;;;;4991869;28;20039;-56
2022/07/02 02:34:13;;;;;;;5.07;1.90;;;11.30;99.90;;;;;;4991913;28;20440;-59
2022/07/02 02:36:38;;;;;;;6.78;1.88;;;11.30;99.90;;;;;;4991904;28;20034;-58
2022/07/02 02:39:04;;;;;;;6.03;2.10;;;11.30;99.90;;;;;;4991343;28;20076;-59
2022/07/02 02:41:29;;;;;;;5.78;2.05;;;11.30;99.90;;;;;;4991572;28;20042;-59
2022/07/02 02:43:55;;;;;;;3.47;1.95;;;11.30;99.90;;;;;;4991892;28;20405;-58
2022/07/02 02:46:21;;;;;;;9.65;1.75;;;11.30;99.90;;;;;;4991666;28;20030;-58
2022/07/02 02:48:46;;;;;;;3.60;1.83;;;11.30;99.90;;;;;;4991948;28;20030;-59
2022/07/02 02:51:14;;;;;;;5.65;1.92;;;11.30;99.90;;;;;;4991684;28;20502;-57
2022/07/02 02:53:42;;;;;;;7.63;2.10;;;11.20;99.90;;;;;;4991110;28;20031;-57
2022/07/02 02:56:08;;;;;;;6.95;2.67;;;11.20;99.90;;;;;;4991439;28;20019;-58
2022/07/02 02:58:34;;;;;;;8.27;2.13;;;11.10;99.90;;;;;;4995064;28;20027;-58
2022/07/02 03:00:59;;;;;;;6.05;2.63;;;11.00;99.90;;;;;;4995675;28;20048;-58
2022/07/02 03:03:25;;;;;;;5.88;2.28;;;11.00;99.90;;;;;;4994896;28;20041;-56
2022/07/02 03:05:51;;;;;;;3.70;2.28;;;11.00;99.90;;;;;;4994970;28;20057;-57
2022/07/02 03:08:17;;;;;;;7.47;2.70;;;11.00;99.90;;;;;;4993595;28;20034;-54
2022/07/02 03:10:43;;;;;;;4.05;2.20;;;10.90;99.90;;;;;;4994868;28;20026;-57
2022/07/02 03:13:08;;;;;;;3.03;2.53;;;10.90;99.90;;;;;;4995162;28;20395;-59
2022/07/02 03:15:34;;;;;;;6.82;2.45;;;10.90;99.90;;;;;;4994494;28;20023;-57
2022/07/02 03:17:59;;;;;;;10.55;2.65;;;10.80;99.90;;;;;;4994898;28;20365;-59
2022/07/02 03:20:25;;;;;;;3.72;2.03;;;10.80;99.90;;;;;;4995050;28;20048;-57
2022/07/02 03:22:51;;;;;;;7.45;2.83;;;10.80;99.90;;;;;;4992850;28;20088;-59
2022/07/02 03:25:16;;;;;;;3.67;2.40;;;10.90;99.90;;;;;;4993225;28;20041;-58
2022/07/02 03:27:42;;;;;;;7.22;2.47;;;10.80;99.90;;;;;;4994734;28;20033;-58
2022/07/02 03:30:08;;;;;;;10.60;4.15;;;10.90;99.90;;;;;;4993713;28;20072;-58
2022/07/02 03:32:34;;;;;;;3.58;2.13;;;10.90;99.90;;;;;;4994571;28;20076;-57
2022/07/02 03:34:59;;;;;;;7.25;2.28;;;11.00;99.90;;;;;;4994440;28;20097;-58
2022/07/02 03:37:28;;;;;;;3.28;2.17;;;11.00;99.90;;;;;;4994268;28;20018;-57
2022/07/02 03:39:54;;;;;;;3.55;2.13;;;11.00;99.90;;;;;;4993057;28;20388;-58
2022/07/02 03:42:20;;;;;;;7.65;2.58;;;11.00;99.90;;;;;;4994465;28;20026;-57
2022/07/02 03:44:46;;;;;;;11.88;2.40;;;11.10;99.90;;;;;;4994074;28;20052;-58
2022/07/02 03:47:11;;;;;;;2.42;1.88;;;11.10;99.90;;;;;;4994544;28;20105;-57
2022/07/02 03:49:37;;;;;;;5.20;2.08;;;11.10;99.90;;;;;;4994423;28;20369;-59
2022/07/02 03:52:03;;;;;;;7.13;2.03;;;11.10;99.90;;;;;;4993030;28;20034;-57
2022/07/02 03:54:29;;;;;;;2.63;1.92;;;11.20;99.90;;;;;;4994105;28;20026;-57
2022/07/02 03:56:55;;;;;;;5.78;2.28;;;11.20;99.90;;;;;;4994018;28;20032;-59
2022/07/02 03:59:20;;;;;;;3.42;1.83;;;11.20;99.90;;;;;;4993891;28;20106;-58
2022/07/02 04:01:46;;;;;;;3.80;2.13;;;11.20;99.90;;;;;;4994175;28;20026;-56
2022/07/02 04:04:12;;;;;;;4.72;2.45;;;11.30;99.90;;;;;;4994292;28;20030;-57
2022/07/02 04:06:37;;;;;;;4.85;2.33;;;11.30;99.90;;;;;;4992684;28;20030;-60
2022/07/02 04:09:03;;;;;;;5.22;2.30;;;11.30;99.90;;;;;;4993232;28;20400;-60
2022/07/02 04:11:28;;;;;;;7.45;2.38;;;11.30;99.90;;;;;;4993932;28;20030;-59
2022/07/02 04:13:54;;;;;;;2.88;2.00;;;11.40;99.90;;;;;;4994009;28;20026;-59
2022/07/02 04:16:20;;;;;;;6.45;2.40;;;11.40;99.90;;;;;;4994001;28;20022;-58
2022/07/02 04:18:45;;;;;;;6.00;2.38;;;11.40;99.90;;;;;;4993764;28;20030;-60
2022/07/02 04:21:11;;;;;;;5.32;2.30;;;11.40;99.90;;;;;;4992975;28;20026;-59
2022/07/02 04:23:36;;;;;;;4.13;1.80;;;11.50;99.90;;;;;;4993778;28;20104;-59
2022/07/02 04:26:04;;;;;;;3.42;2.30;;;11.50;99.90;;;;;;4993511;28;20165;-57
2022/07/02 04:28:30;;;;;;;3.38;2.70;;;11.50;99.90;;;;;;4993516;28;20045;-57
2022/07/02 04:30:56;;;;;;;4.47;2.10;;;11.60;99.90;;;;;;4993264;28;20022;-59
2022/07/02 04:33:21;;;;;;;4.03;2.10;;;11.70;99.90;;;;;;4993503;28;20373;-57
2022/07/02 04:35:47;;;;;;;3.15;1.73;;;11.80;99.90;;;;;;4992216;28;20036;-59
2022/07/02 04:38:12;;;;;;;4.75;1.90;;;12.70;99.90;;;;;;4993237;28;20030;-59
2022/07/02 04:40:38;;;;;;;3.05;1.30;;;14.20;99.90;;;;;;4993795;28;20022;-60
2022/07/02 04:43:04;;;;;;;5.47;1.63;;;15.90;99.90;;;;;;4993538;28;20027;-58
2022/07/02 04:45:29;;;;;;;1.88;1.55;;;17.70;99.90;;;;;;4993004;28;20034;-60
2022/07/02 04:47:55;;;;;;;2.35;1.20;;;19.70;99.90;;;;;;4993007;28;20029;-60
2022/07/02 04:50:20;;;;;;;2.72;1.02;;;21.20;95.90;;;;;;4992209;28;20069;-61
2022/07/02 04:52:48;;;;;;;1.65;0.80;;;21.50;95.30;;;;;;4992175;28;20042;-60
2022/07/02 04:55:14;;;;;;;5.80;1.27;;;21.80;93.50;;;;;;4992726;28;20022;-59
2022/07/02 04:57:40;;;;;;;3.28;0.88;;;22.70;91.40;;;;;;4993101;28;20030;-61
2022/07/02 05:00:06;;;;;;;3.60;1.20;;;23.00;90.00;;;;;;4992913;28;20022;-60
2022/07/02 05:02:32;;;;;;;1.55;0.90;;;23.20;86.50;;;;;;4992710;28;20496;-60
2022/07/02 05:04:57;;;;;;;2.30;1.00;;;24.00;84.40;;;;;;4991659;28;20045;-60
2022/07/02 05:07:23;;;;;;;1.65;0.85;;;24.40;81.20;;;;;;4992701;28;20484;-59
2022/07/02 05:09:48;;;;;;;2.28;1.30;;;25.00;80.70;;;;;;4993416;28;20031;-60
2022/07/02 05:12:14;;;;;;;3.58;1.52;;;25.70;77.50;;;;;;4992980;28;20026;-60
2022/07/02 05:14:40;;;;;;;2.78;0.95;;;26.60;74.20;;;;;;4992434;28;20028;-62
2022/07/02 05:17:06;;;;;;;2.33;1.15;;;26.40;72.80;;;;;;4992565;28;20023;-61
2022/07/02 05:19:31;;;;;;;4.30;1.05;;;27.10;70.60;;;;;;4991584;28;20026;-60
2022/07/02 05:21:57;;;;;;;1.95;0.82;;;27.30;70.10;;;;;;4992532;28;20033;-60
2022/07/02 05:24:22;;;;;;;2.20;0.93;;;27.00;68.10;;;;;;4992579;28;20362;-61
2022/07/02 05:26:48;;;;;;;1.33;0.82;;;26.80;68.00;;;;;;4992543;28;20022;-60
2022/07/02 05:29:14;;;;;;;2.58;1.00;;;26.40;70.00;;;;;;4992506;28;20034;-62
2022/07/02 05:31:39;;;;;;;2.60;1.10;;;27.00;68.30;;;;;;4991992;28;20398;-61
2022/07/02 05:34:05;;;;;;;1.48;0.70;;;26.50;68.30;;;;;;4991550;28;20034;-61
2022/07/02 05:36:30;;;;;;;2.63;0.85;;;26.90;69.50;;;;;;4992459;28;20077;-61
2022/07/02 05:38:56;;;;;;;4.72;0.90;;;26.90;68.10;;;;;;4992519;28;20018;-61
2022/07/02 05:41:21;;;;;;;2.45;1.13;;;27.50;66.40;;;;;;4992585;28;20396;-61
2022/07/02 05:43:47;;;;;;;2.90;1.10;;;27.60;66.70;;;;;;4992099;28;20042;-60
2022/07/02 05:46:12;;;;;;;2.10;0.90;;;27.70;67.00;;;;;;4991715;28;20041;-60
2022/07/02 05:48:38;;;;;;;2.03;1.20;;;28.10;66.90;;;;;;4992171;28;20484;-61
2022/07/02 05:51:04;;;;;;;3.67;1.23;;;28.10;64.80;;;;;;4992308;28;20031;-61
2022/07/02 05:53:29;;;;;;;1.95;1.30;;;27.80;64.30;;;;;;4992137;28;20033;-60
2022/07/02 05:55:55;;;;;;;4.60;1.13;;;29.20;65.20;;;;;;4992033;28;20034;-60
2022/07/02 05:58:21;;;;;;;3.60;1.30;;;28.70;64.00;;;;;;4992202;28;20026;-61
2022/07/02 06:00:46;;;;;;;3.65;1.30;;;29.40;62.70;;;;;;4990951;28;20093;-61
2022/07/02 06:03:12;;;;;;;2.20;1.10;;;29.30;62.10;;;;;;4991277;28;20039;-60
2022/07/02 06:08:22;;;;;;;6.65;1.10;;;29.20;62.10;;;;;;4992250;28;20511;-61
2022/07/02 06:10:47;;;;;;;3.38;1.00;;;30.90;59.70;;;;;;4991760;28;20031;-62
2022/07/02 06:13:15;;;;;;;2.97;1.10;;;30.60;60.50;;;;;;4991977;28;20030;-61
2022/07/02 06:15:41;;;;;;;2.85;1.15;;;30.80;58.80;;;;;;4991012;28;20027;-61
2022/07/02 06:18:06;;;;;;;2.55;1.00;;;30.90;59.40;;;;;;4992064;28;20480;-61
2022/07/02 06:20:32;;;;;;;2.67;1.17;;;30.70;58.10;;;;;;4992375;28;20023;-62
2022/07/02 06:22:57;;;;;;;2.97;0.95;;;31.10;58.60;;;;;;4992162;28;20080;-60
2022/07/02 06:25:23;;;;;;;2.15;0.98;;;31.40;58.10;;;;;;4991812;28;20117;-61
2022/07/02 06:27:49;;;;;;;3.67;1.00;;;31.60;57.20;;;;;;4992073;28;20109;-62
2022/07/02 06:30:16;;;;;;;2.05;0.77;;;31.00;58.00;;;;;;4990391;28;20030;-62
2022/07/02 06:32:42;;;;;;;3.47;1.13;;;32.00;56.60;;;;;;4993591;28;20056;-62
2022/07/02 06:35:08;;;;;;;2.00;1.17;;;31.40;57.00;;;;;;4995712;28;20504;-62
2022/07/02 06:37:34;;;;;;;2.70;1.27;;;31.50;57.70;;;;;;4995983;28;20050;-62
2022/07/02 06:39:59;;;;;;;2.20;0.98;;;31.30;56.40;;;;;;4995329;28;20452;-62
2022/07/02 06:42:31;;;;;;;5.13;1.10;;;31.60;57.40;;;;;;4995530;28;20033;-62
2022/07/02 06:44:58;;;;;;;2.08;1.17;;;31.70;56.60;;;;;;4994345;28;20097;-62
2022/07/02 06:47:24;;;;;;;4.90;1.08;;;31.90;56.30;;;;;;4995681;28;20038;-62
2022/07/02 06:49:50;;;;;;;2.47;1.10;;;31.50;56.00;;;;;;4995679;28;20038;-62
2022/07/02 06:52:17;;;;;;;1.50;0.80;;;32.40;54.90;;;;;;4995160;28;20396;-62
2022/07/02 06:54:43;;;;;;;3.08;0.93;;;32.40;54.80;;;;;;4994604;28;20116;-62
2022/07/02 06:57:09;;;;;;;2.20;1.00;;;32.20;54.30;;;;;;4995233;28;20081;-61
2022/07/02 06:59:36;;;;;;;7.43;1.05;;;32.40;54.50;;;;;;4994200;28;20022;-61
2022/07/02 07:02:02;;;;;;;2.88;1.33;;;33.10;54.50;;;;;;4994779;28;20455;-62
2022/07/02 07:04:28;;;;;;;4.78;1.35;;;31.70;55.10;;;;;;4995185;28;20386;-61
2022/07/02 07:06:56;;;;;;;2.47;1.20;;;31.80;55.50;;;;;;4995195;28;20026;-61
2022/07/02 07:09:25;;;;;;;3.85;1.20;;;32.40;55.10;;;;;;4995180;28;20105;-62
2022/07/02 07:11:51;;;;;;;1.17;0.90;;;33.40;53.50;;;;;;4994924;28;20093;-62
2022/07/02 07:14:17;;;;;;;2.45;0.90;;;32.10;54.10;;;;;;4993983;28;20030;-62
2022/07/02 07:16:42;;;;;;;2.13;1.00;;;32.60;54.80;;;;;;4994342;28;20548;-61
2022/07/02 07:19:08;;;;;;;3.55;1.27;;;32.20;54.20;;;;;;4994909;28;20105;-62
2022/07/02 07:21:35;;;;;;;2.28;1.05;;;32.10;56.00;;;;;;4995176;28;20026;-62
2022/07/02 07:24:01;;;;;;;3.75;1.58;;;32.70;53.80;;;;;;4995075;28;20049;-63
2022/07/02 07:26:27;;;;;;;11.90;0.95;;;33.90;52.90;;;;;;4994537;28;20031;-62
2022/07/02 07:28:52;;;;;;;2.22;1.05;;;34.20;52.20;;;;;;4993999;28;20034;-61
2022/07/02 07:31:20;;;;;;;2.28;1.00;;;33.50;54.00;;;;;;4994171;28;20093;-62
2022/07/02 07:33:53;;;;;;;2.53;0.98;;;34.40;52.80;;;;;;4994727;28;20060;-61
2022/07/02 07:36:20;;;;;;;2.95;1.00;;;33.10;51.20;;;;;;4994280;28;20122;-62
2022/07/02 07:38:46;;;;;;;2.28;1.13;;;33.00;53.30;;;;;;4994604;28;20027;-62
2022/07/02 07:41:12;;;;;;;2.10;0.88;;;32.80;53.20;;;;;;4993748;28;20129;-61
2022/07/02 07:43:38;;;;;;;5.32;1.02;;;32.70;53.00;;;;;;4993296;28;20503;-63
2022/07/02 07:46:03;;;;;;;3.10;0.95;;;32.90;53.30;;;;;;4993601;28;20057;-62
2022/07/02 07:48:29;;;;;;;2.60;1.10;;;33.20;53.90;;;;;;4994466;28;20026;-62
2022/07/02 07:50:55;;;;;;;2.58;0.88;;;34.90;50.90;;;;;;4994219;28;20404;-62
2022/07/02 07:53:21;;;;;;;3.20;0.70;;;34.60;49.50;;;;;;4994392;28;20022;-62
2022/07/02 07:55:48;;;;;;;1.85;0.80;;;34.70;50.50;;;;;;4992981;28;20041;-62
2022/07/02 07:58:17;;;;;;;2.50;0.93;;;34.30;51.80;;;;;;4994280;28;20043;-61
2022/07/02 08:00:43;;;;;;;1.00;0.80;;;34.70;48.80;;;;;;4993941;28;20027;-62
2022/07/02 08:03:08;;;;;;;3.75;0.80;;;33.80;49.50;;;;;;4993883;28;20565;-62
2022/07/02 08:05:34;;;;;;;2.65;0.70;;;34.00;50.80;;;;;;4993766;28;20532;-62
2022/07/02 08:07:59;;;;;;;2.50;1.13;;;33.90;49.00;;;;;;4993577;28;20049;-62
2022/07/02 08:10:26;;;;;;;3.40;1.00;;;34.30;50.10;;;;;;4993007;28;20029;-62
2022/07/02 08:12:52;;;;;;;2.08;0.80;;;33.70;48.70;;;;;;4993738;28;20534;-62
2022/07/02 08:15:17;;;;;;;2.53;1.00;;;34.20;49.30;;;;;;4993618;28;20034;-62
2022/07/02 08:17:43;;;;;;;1.67;0.90;;;33.80;48.90;;;;;;4993851;28;20057;-61
2022/07/02 08:20:10;;;;;;;0.68;0.50;;;33.50;49.00;;;;;;4993765;28;20019;-60
2022/07/02 08:22:36;;;;;;;3.47;1.00;;;33.00;48.40;;;;;;4993415;28;20026;-63
2022/07/02 08:25:03;;;;;;;1.38;0.80;;;34.40;48.10;;;;;;4992430;28;20034;-62
2022/07/02 08:27:29;;;;;;;3.28;0.70;;;34.90;47.80;;;;;;4993429;28;20038;-62
2022/07/02 08:29:55;;;;;;;3.47;1.15;;;34.60;47.10;;;;;;4993565;28;20030;-62
2022/07/02 08:32:21;;;;;;;3.10;0.85;;;34.50;45.80;;;;;;4993269;28;20038;-62
2022/07/02 08:34:47;;;;;;;4.57;0.85;;;34.60;46.30;;;;;;4993292;28;20034;-62
2022/07/02 08:37:14;;;;;;;3.28;0.60;;;34.60;45.20;;;;;;4992786;28;20038;-61
2022/07/02 08:39:39;;;;;;;1.33;0.63;;;34.40;46.60;;;;;;4992340;28;20026;-61
2022/07/02 08:42:06;;;;;;;2.78;0.70;;;34.70;46.70;;;;;;4993223;28;20031;-62
2022/07/02 08:44:32;;;;;;;1.63;0.70;;;34.30;47.60;;;;;;4993723;28;20038;-60
2022/07/02 08:46:59;;;;;;;1.40;0.68;;;34.50;47.70;;;;;;4992235;28;20093;-63
2022/07/02 08:49:30;;;;;;;2.70;0.80;;;33.90;45.50;;;;;;4993085;28;20030;-63
2022/07/02 08:52:03;;;;;;;0.55;0.55;;;33.10;46.90;;;;;;4992798;28;20061;-63
2022/07/02 08:54:31;;;;;;;4.55;0.70;;;34.40;46.80;;;;;;4991967;28;20113;-62
2022/07/02 08:56:59;;;;;;;1.30;0.80;;;35.00;45.90;;;;;;4992929;28;20057;-62
2022/07/02 08:59:25;;;;;;;1.80;0.70;;;34.10;45.50;;;;;;4993418;28;20026;-61
2022/07/02 09:01:52;;;;;;;4.28;0.90;;;34.40;45.90;;;;;;4992627;28;20106;-62
2022/07/02 09:04:19;;;;;;;3.88;0.90;;;34.30;45.20;;;;;;4993111;28;20030;-62
2022/07/02 09:06:46;;;;;;;3.92;0.90;;;33.80;46.30;;;;;;4992869;28;20031;-62
2022/07/02 09:09:12;;;;;;;2.13;0.70;;;34.00;46.90;;;;;;4991044;28;20030;-62
2022/07/02 09:11:38;;;;;;;3.30;0.63;;;33.10;46.10;;;;;;4991233;28;20412;-62
2022/07/02 09:14:05;;;;;;;1.75;0.63;;;32.60;47.40;;;;;;4992694;28;20391;-61
2022/07/02 09:16:31;;;;;;;1.65;0.77;;;31.80;48.20;;;;;;4992171;28;20029;-62
2022/07/02 09:18:57;;;;;;;5.65;0.70;;;32.30;49.50;;;;;;4992777;28;20025;-62
2022/07/02 09:21:23;;;;;;;2.42;0.75;;;32.30;48.80;;;;;;4992791;28;20034;-62
2022/07/02 09:23:50;;;;;;;0.90;0.50;;;32.90;48.40;;;;;;4992780;28;20561;-62
2022/07/02 09:26:18;;;;;;;4.70;0.88;;;33.90;48.00;;;;;;4991095;28;20089;-62
2022/07/02 09:28:59;;;;;;;3.33;0.98;;;32.50;49.90;;;;;;4992183;28;20571;-62
2022/07/02 09:31:26;;;;;;;3.72;0.65;;;32.00;51.80;;;;;;4992342;28;20503;-62
2022/07/02 09:33:53;;;;;;;2.08;0.68;;;31.70;49.40;;;;;;4992567;28;20033;-60
2022/07/02 09:36:19;;;;;;;1.15;0.65;;;32.00;51.00;;;;;;4992449;28;20391;-62
2022/07/02 09:38:47;;;;;;;2.92;0.82;;;33.20;49.70;;;;;;4992529;28;20026;-62
2022/07/02 09:41:15;;;;;;;2.40;0.70;;;33.50;47.90;;;;;;4991262;28;20114;-62
2022/07/02 09:43:41;;;;;;;3.53;0.63;;;32.70;47.70;;;;;;4992432;28;20053;-62
2022/07/02 09:46:20;;;;;;;0.82;0.60;;;32.00;48.80;;;;;;4991864;28;20496;-63
2022/07/02 09:48:47;;;;;;;1.63;0.80;;;31.80;47.90;;;;;;4992572;28;20400;-61
2022/07/02 09:51:14;;;;;;;4.15;0.63;;;30.50;47.10;;;;;;4992294;28;20046;-62
2022/07/02 09:53:54;;;;;;;3.92;0.50;;;31.00;48.30;;;;;;4992302;28;20496;-61
2022/07/02 09:56:22;;;;;;;2.10;0.50;;;31.50;51.90;;;;;;4990588;28;20038;-62
2022/07/02 09:58:48;;;;;;;2.20;0.68;;;31.20;51.10;;;;;;4992291;28;20038;-62
2022/07/02 10:01:18;;;;;;;3.03;0.73;;;31.30;47.50;;;;;;4992380;28;20030;-62
2022/07/02 10:03:54;;;;;;;1.70;0.80;;;31.50;48.40;;;;;;4992788;28;20035;-62
2022/07/02 10:06:20;;;;;;;1.75;0.60;;;31.00;47.20;;;;;;4992107;28;20030;-62
2022/07/02 10:08:48;;;;;;;1.65;0.52;;;30.40;48.60;;;;;;4994889;28;20484;-60
2022/07/02 10:11:14;;;;;;;3.13;0.52;;;30.10;49.10;;;;;;4992990;28;20062;-61
2022/07/02 10:13:42;;;;;;;1.98;0.73;;;29.90;49.10;;;;;;4996053;28;20019;-61
2022/07/02 10:16:17;;;;;;;4.97;1.13;;;30.00;50.40;;;;;;4995837;28;20049;-61
2022/07/02 10:18:43;;;;;;;5.20;0.50;;;30.30;50.70;;;;;;4996126;28;20049;-59
2022/07/02 10:21:14;;;;;;;4.15;0.68;;;29.90;49.50;;;;;;4996158;28;20030;-58
2022/07/02 10:23:43;;;;;;;2.97;0.47;;;29.50;51.00;;;;;;4994896;28;20083;-59
2022/07/02 10:26:10;;;;;;;1.55;0.50;;;29.70;51.00;;;;;;4995408;28;20037;-61
2022/07/02 10:28:36;;;;;;;1.75;0.63;;;29.50;50.70;;;;;;4995918;28;20072;-58
2022/07/02 10:31:02;;;;;;;1.88;0.55;;;29.40;51.00;;;;;;4995934;28;20116;-60
2022/07/02 10:33:31;;;;;;;1.50;0.77;;;29.30;49.80;;;;;;4996011;28;20019;-59
2022/07/02 10:35:59;;;;;;;4.30;0.77;;;29.00;50.20;;;;;;4995319;28;20023;-58
2022/07/02 10:38:37;;;;;;;2.55;0.82;;;28.50;51.40;;;;;;4992651;28;20443;-60
2022/07/02 10:41:04;;;;;;;1.58;0.60;;;28.60;50.90;;;;;;4993872;28;20132;-60
2022/07/02 10:43:36;;;;;;;1.05;0.60;;;28.70;51.60;;;;;;4995022;28;20022;-61
2022/07/02 10:46:08;;;;;;;2.08;0.60;;;28.80;53.90;;;;;;4988026;28;20392;-60
2022/07/02 10:48:35;;;;;;;2.45;0.70;;;28.70;50.40;;;;;;4994951;28;20030;-59
2022/07/02 10:51:01;;;;;;;2.42;0.70;;;28.40;53.30;;;;;;4995314;28;20034;-60
2022/07/02 10:53:28;;;;;;;1.65;0.38;;;28.30;52.60;;;;;;4993718;28;20048;-58
2022/07/02 10:55:54;;;;;;;1.13;0.60;;;28.10;52.60;;;;;;4995233;28;20106;-60
2022/07/02 10:58:29;;;;;;;1.63;0.60;;;28.10;52.90;;;;;;4995617;28;20109;-60
2022/07/02 11:00:55;;;;;;;2.10;0.70;;;28.00;53.10;;;;;;4996416;28;20073;-60
2022/07/02 11:03:26;;;;;;;3.03;0.80;;;27.90;53.30;;;;;;4995559;28;20081;-59
2022/07/02 11:05:57;;;;;;;4.97;0.77;;;28.10;52.00;;;;;;4995037;28;20031;-61
2022/07/02 11:08:49;;;;;;;1.65;0.50;;;28.30;52.70;;;;;;4993827;28;20065;-59
2022/07/02 11:11:17;;;;;;;2.35;0.60;;;28.20;53.80;;;;;;4992299;28;20030;-59
2022/07/02 11:13:58;;;;;;;8.48;0.60;;;28.20;53.30;;;;;;4994733;28;20168;-61
2022/07/02 11:16:31;;;;;;;2.88;0.70;;;27.70;53.20;;;;;;4994859;28;20027;-60
2022/07/02 11:18:58;;;;;;;3.95;0.75;;;27.50;52.90;;;;;;4995057;28;20026;-59
2022/07/02 11:21:25;;;;;;;2.05;0.40;;;27.50;55.90;;;;;;4995104;28;20077;-61
2022/07/02 11:23:51;;;;;;;5.43;0.50;;;27.40;53.10;;;;;;4995075;28;20065;-60
2022/07/02 11:26:23;;;;;;;1.48;0.73;;;27.30;55.20;;;;;;4993086;28;20035;-58
2022/07/02 11:28:49;;;;;;;3.08;0.60;;;27.60;55.00;;;;;;4994856;28;20026;-58
2022/07/02 11:31:21;;;;;;;1.75;0.60;;;27.40;54.50;;;;;;4994909;28;20034;-60
2022/07/02 11:33:56;;;;;;;2.15;0.70;;;27.10;55.30;;;;;;4994680;28;20041;-59
2022/07/02 11:36:23;;;;;;;4.53;0.60;;;27.10;55.00;;;;;;4993412;28;20022;-60
2022/07/02 11:38:50;;;;;;;2.20;0.50;;;27.00;54.70;;;;;;4992547;28;20055;-61
2022/07/02 11:41:22;;;;;;;1.88;0.70;;;27.20;52.60;;;;;;4994720;28;20026;-58
2022/07/02 11:43:50;;;;;;;2.97;0.68;;;27.10;54.70;;;;;;4994057;28;20106;-59
2022/07/02 11:46:27;;;;;;;1.50;0.82;;;26.80;53.50;;;;;;4995231;28;20042;-60
2022/07/02 11:48:54;;;;;;;4.97;0.80;;;26.70;55.20;;;;;;4994487;28;20026;-60
2022/07/02 11:51:20;;;;;;;5.47;0.60;;;26.20;53.70;;;;;;4993908;28;20042;-58
2022/07/02 11:54:00;;;;;;;1.23;0.60;;;26.20;55.70;;;;;;4993720;28;20476;-61
2022/07/02 11:56:27;;;;;;;5.65;0.90;;;26.30;56.30;;;;;;4993890;28;20026;-60
2022/07/02 11:58:53;;;;;;;3.75;0.70;;;26.50;54.70;;;;;;4994477;28;20081;-60
2022/07/02 12:01:29;;;;;;;6.45;0.80;;;26.30;54.10;;;;;;4994150;28;20030;-61
2022/07/02 12:03:58;;;;;;;2.05;0.80;;;26.30;56.90;;;;;;4994520;28;20096;-59
2022/07/02 12:06:27;;;;;;;2.80;1.02;;;26.40;57.30;;;;;;4992400;28;20044;-62
2022/07/02 12:08:56;;;;;;;3.05;0.90;;;26.70;56.50;;;;;;4994093;28;20030;-60
2022/07/02 12:11:23;;;;;;;2.78;0.65;;;26.70;55.00;;;;;;4993888;28;20022;-60
2022/07/02 12:13:49;;;;;;;2.63;0.88;;;26.60;55.10;;;;;;4993818;28;20507;-62
2022/07/02 12:16:21;;;;;;;2.08;0.82;;;26.50;57.50;;;;;;4993595;28;20031;-59
2022/07/02 12:18:57;;;;;;;3.60;0.90;;;26.60;56.00;;;;;;4993935;28;20385;-60
2022/07/02 12:21:34;;;;;;;2.10;0.70;;;26.70;54.80;;;;;;4992486;28;20029;-59
2022/07/02 12:23:59;;;;;;;1.75;0.95;;;26.60;57.90;;;;;;4993319;28;20496;-59
2022/07/02 12:26:27;;;;;;;4.57;0.95;;;26.60;57.60;;;;;;4993483;28;20044;-60
2022/07/02 12:32:06;;;;;;;0.98;0.73;;;26.40;56.30;;;;;;4991087;28;20069;-61
2022/07/02 12:34:39;;;;;;;3.47;0.77;;;26.00;58.00;;;;;;4990605;28;20550;-59
2022/07/02 12:37:05;;;;;;;1.75;0.63;;;26.00;56.00;;;;;;4992380;28;20064;-61
2022/07/02 12:39:41;;;;;;;2.35;0.60;;;26.10;57.00;;;;;;4991108;28;20401;-60
2022/07/02 12:42:19;;;;;;;1.77;0.73;;;26.20;58.00;;;;;;4992163;28;20026;-61
2022/07/02 12:44:56;;;;;;;1.60;0.60;;;26.40;58.10;;;;;;4984979;28;20030;-60
2022/07/02 12:47:34;;;;;;;4.45;0.90;;;26.50;58.40;;;;;;4992641;28;20092;-60
2022/07/02 12:50:02;;;;;;;3.50;0.70;;;26.60;56.20;;;;;;4993652;28;20034;-61
2022/07/02 12:52:30;;;;;;;3.92;0.60;;;26.50;56.70;;;;;;4989641;28;20567;-59
2022/07/02 12:54:56;;;;;;;0.88;0.60;;;26.30;55.90;;;;;;4992043;28;20084;-61